Aviation Digital Data Service (ADDS)

Output produced by METARs form (0655 UTC 03 August 2021)
found at http://www.aviationweather.gov/metar/data/
 
KAOO 030653Z AUTO 00000KT 10SM CLR 11/08 A3014 RMK AO2 SLP201 T01110083
KAOO 030553Z AUTO 00000KT 10SM CLR 11/09 A3014 RMK AO2 SLP203 T01110089 10211 20111 50000
KAOO 030453Z AUTO 00000KT 10SM CLR 13/09 A3015 RMK AO2 SLP204 T01280094 402560117
KAOO 030353Z AUTO 00000KT 10SM CLR 12/09 A3014 RMK AO2 SLP204 T01220094
KAOO 030253Z AUTO 00000KT 10SM CLR 14/10 A3014 RMK AO2 SLP203 T01390100 53014
KAOO 030153Z AUTO 16004KT 10SM CLR 15/11 A3012 RMK AO2 SLP197 T01500106
KAOO 030053Z AUTO 25003KT 10SM CLR 17/11 A3011 RMK AO2 SLP192 T01720106
KAOO 022353Z AUTO 00000KT 10SM CLR 21/11 A3010 RMK AO2 SLP186 T02110111 10256 20211 53005
KAOO 022253Z AUTO 34005KT 10SM FEW060 FEW080 24/08 A3009 RMK AO2 SLP181 T02440083
KAOO 022153Z AUTO 33004KT 10SM FEW060 24/09 A3009 RMK AO2 SLP180 T02440089
KAOO 022053Z AUTO 01008KT 10SM BKN075 25/09 A3008 RMK AO2 SLP180 T02500094 58006
KAOO 021953Z AUTO 00000KT 10SM BKN065 23/09 A3009 RMK AO2 SLP183 T02330089
KAOO 021853Z AUTO 07003KT 10SM BKN060 23/10 A3010 RMK AO2 SLP185 T02280100
KAOO 021753Z AUTO VRB05KT 10SM BKN045 BKN060 23/10 A3010 RMK AO2 SLP187 T02280100 10239 20156 58005
KAOO 021653Z AUTO VRB06G19KT 10SM SCT040 SCT050 22/11 A3011 RMK AO2 SLP190 T02220106
KAOO 021553Z AUTO 32008KT 10SM BKN034 BKN040 21/11 A3012 RMK AO2 SLP193 T02060111
KAOO 021549Z AUTO 30009KT 10SM BKN032 BKN040 21/11 A3012 RMK AO2
KAOO 021453Z AUTO 31009KT 10SM BKN025 BKN032 21/12 A3012 RMK AO2 SLP193 T02060117 51017
KAOO 021353Z AUTO 36005KT 10SM OVC026 18/11 A3011 RMK AO2 SLP192 T01780111
KAOO 021253Z AUTO VRB04KT 10SM BKN019 17/12 A3009 RMK AO2 SLP186 T01670117
KAOO 021228Z AUTO 35006KT 10SM BKN020 16/12 A3008 RMK AO2 T01610117
KAOO 021153Z AUTO 33006KT 10SM FEW017 16/12 A3007 RMK AO2 SLP176 70002 T01560117 10156 20128 53019
KAOO 021053Z AUTO 30007KT 9SM CLR 15/12 A3005 RMK AO2 SLP171 T01500117
KAOO 021024Z AUTO 32006KT 8SM SCT018 14/11 A3003 RMK AO2 T01440111
KAOO 021016Z AUTO 30004KT 8SM BKN018 14/11 A3003 RMK AO2 T01440111
KAOO 020953Z AUTO 00000KT 8SM FEW019 14/11 A3002 RMK AO2 SLP162 T01390111
KAOO 020853Z AUTO 00000KT 7SM BKN021 14/12 A3001 RMK AO2 SLP154 T01440122 51009
KAOO 020851Z AUTO 00000KT 7SM BKN021 14/12 A3001 RMK AO2
KAOO 020753Z AUTO 00000KT 6SM BR CLR 13/11 A2999 RMK AO2 SLP148 T01330111
KAOO 020653Z AUTO 19003KT 5SM BR CLR 14/12 A2998 RMK AO2 SLP144 T01390117
KAOO 020553Z AUTO 00000KT 5SM BR CLR 14/12 A2997 RMK AO2 SLP141 T01390117 10194 20139 50002
KAOO 020453Z AUTO 00000KT 6SM BR CLR 14/12 A2998 RMK AO2 SLP143 T01390117 402720122
KAOO 020353Z AUTO 18004KT 7SM FEW014 14/12 A2997 RMK AO2 SLP143 T01440122
KAOO 020339Z AUTO 00000KT 7SM SCT014 16/13 A2998 RMK AO2 T01610133
KAOO 020332Z AUTO 00000KT 8SM BKN015 17/13 A2997 RMK AO2 T01670133
KAOO 020253Z AUTO 00000KT 10SM CLR 16/12 A2996 RMK AO2 SLP140 T01560122 51018
KAOO 020153Z AUTO 00000KT 10SM BKN100 17/12 A2996 RMK AO2 SLP138 T01670122
KAOO 020053Z AUTO 00000KT 9SM FEW110 16/12 A2993 RMK AO2 SLP129 T01610122
KAOO 012353Z AUTO 33007KT 10SM CLR 19/12 A2991 RMK AO2 SLP122 60002 T01940117 10272 20183 51020
KAOO 012253Z AUTO VRB03KT 10SM OVC080 19/13 A2990 RMK AO2 PK WND 31026/2211 RAB09E31 SLP120 P0000 T01890128
KAOO 012153Z AUTO 33014G21KT 10SM SCT055 SCT075 BKN085 20/12 A2989 RMK AO2 WSHFT 2103 LTG DSNT SE RAB17E51 TSB24E39 SLP118 P0001 T02000117
KAOO 012145Z AUTO 32010KT 8SM -RA FEW039 BKN050 OVC085 19/12 A2990 RMK AO2 WSHFT 2103 RAB17 TSB24E39 P0001 T01940122
KAOO 012130Z AUTO 30011G17KT 10SM -TSRA SCT040 BKN050 OVC085 20/12 A2990 RMK AO2 WSHFT 2103 RAB17 TSB24 PRESRR P0000 T02000122
KAOO 012123Z AUTO 31010G20KT 10SM -RA SCT040 BKN048 OVC085 20/12 A2989 RMK AO2 WSHFT 2103 LTG DSNT NE RAB17 P0000 T02000122
KAOO 012053Z AUTO 24006KT 10SM FEW055 25/16 A2985 RMK AO2 RAE1954 SLP100 P0000 60001 T02500156 56011
KAOO 011953Z AUTO 18007KT 10SM -RA FEW044 SCT050 BKN080 23/17 A2985 RMK AO2 RAB35 SLP101 P0001 T02280172
KAOO 030524Z 0306/0406 00000KT P6SM SKC 
     FM031300 14004KT P6SM OVC100 
     FM040000 14004KT P6SM OVC060